sensor_id;sensor_type;location;lat;lon;timestamp;temperature;humidity
38428;DHT22;24211;49.980;19.776;2023-09-07T00:02:16;17.30;99.90
38428;DHT22;24211;49.980;19.776;2023-09-07T00:04:51;17.30;99.90
38428;DHT22;24211;49.980;19.776;2023-09-07T00:07:19;17.20;99.90
38428;DHT22;24211;49.980;19.776;2023-09-07T00:09:46;17.20;99.90
38428;DHT22;24211;49.980;19.776;2023-09-07T00:12:17;17.20;99.90
38428;DHT22;24211;49.980;19.776;2023-09-07T00:14:45;17.10;99.90
38428;DHT22;24211;49.980;19.776;2023-09-07T00:17:13;17.10;99.90
38428;DHT22;24211;49.980;19.776;2023-09-07T00:19:40;17.00;99.90
38428;DHT22;24211;49.980;19.776;2023-09-07T00:22:08;16.90;99.90
38428;DHT22;24211;49.980;19.776;2023-09-07T00:25:02;17.00;99.90
38428;DHT22;24211;49.980;19.776;2023-09-07T00:27:31;16.90;99.90
38428;DHT22;24211;49.980;19.776;2023-09-07T00:30:03;16.80;99.90
38428;DHT22;24211;49.980;19.776;2023-09-07T00:32:37;16.80;99.90
38428;DHT22;24211;49.980;19.776;2023-09-07T00:35:08;16.80;99.90
38428;DHT22;24211;49.980;19.776;2023-09-07T00:37:37;16.70;99.90
38428;DHT22;24211;49.980;19.776;2023-09-07T00:40:08;16.70;99.90
38428;DHT22;24211;49.980;19.776;2023-09-07T00:42:37;16.70;99.90
38428;DHT22;24211;49.980;19.776;2023-09-07T00:45:09;16.60;99.90
38428;DHT22;24211;49.980;19.776;2023-09-07T00:47:39;16.60;99.90
38428;DHT22;24211;49.980;19.776;2023-09-07T00:50:08;16.60;99.90
38428;DHT22;24211;49.980;19.776;2023-09-07T00:52:41;16.60;99.90
38428;DHT22;24211;49.980;19.776;2023-09-07T00:55:10;16.50;99.90
38428;DHT22;24211;49.980;19.776;2023-09-07T00:57:38;16.40;99.90
38428;DHT22;24211;49.980;19.776;2023-09-07T01:00:10;16.40;99.90
38428;DHT22;24211;49.980;19.776;2023-09-07T01:02:41;16.40;99.90
38428;DHT22;24211;49.980;19.776;2023-09-07T01:05:13;16.30;99.90
38428;DHT22;24211;49.980;19.776;2023-09-07T01:07:53;16.30;99.90
38428;DHT22;24211;49.980;19.776;2023-09-07T01:10:24;16.30;99.90
38428;DHT22;24211;49.980;19.776;2023-09-07T01:12:53;16.20;99.90
38428;DHT22;24211;49.980;19.776;2023-09-07T01:15:20;16.20;99.90
38428;DHT22;24211;49.980;19.776;2023-09-07T01:17:48;16.20;99.90
38428;DHT22;24211;49.980;19.776;2023-09-07T01:20:16;16.10;99.90
38428;DHT22;24211;49.980;19.776;2023-09-07T01:22:46;16.10;99.90
38428;DHT22;24211;49.980;19.776;2023-09-07T01:25:16;16.00;99.90
38428;DHT22;24211;49.980;19.776;2023-09-07T01:27:45;16.00;99.90
38428;DHT22;24211;49.980;19.776;2023-09-07T01:30:17;16.00;99.90
38428;DHT22;24211;49.980;19.776;2023-09-07T01:32:45;15.90;99.90
38428;DHT22;24211;49.980;19.776;2023-09-07T01:35:13;15.90;99.90
38428;DHT22;24211;49.980;19.776;2023-09-07T01:37:44;15.80;99.90
38428;DHT22;24211;49.980;19.776;2023-09-07T01:40:11;15.80;99.90
38428;DHT22;24211;49.980;19.776;2023-09-07T01:42:39;15.80;99.90
38428;DHT22;24211;49.980;19.776;2023-09-07T01:45:06;15.80;99.90
38428;DHT22;24211;49.980;19.776;2023-09-07T01:47:38;15.70;99.90
38428;DHT22;24211;49.980;19.776;2023-09-07T01:50:06;15.70;99.90
38428;DHT22;24211;49.980;19.776;2023-09-07T01:52:41;15.60;99.90
38428;DHT22;24211;49.980;19.776;2023-09-07T01:55:09;15.60;99.90
38428;DHT22;24211;49.980;19.776;2023-09-07T01:57:36;15.60;99.90
38428;DHT22;24211;49.980;19.776;2023-09-07T02:00:05;15.50;99.90
38428;DHT22;24211;49.980;19.776;2023-09-07T02:02:39;15.50;99.90
38428;DHT22;24211;49.980;19.776;2023-09-07T02:05:07;15.50;99.90
38428;DHT22;24211;49.980;19.776;2023-09-07T02:07:38;15.50;99.90
38428;DHT22;24211;49.980;19.776;2023-09-07T02:10:18;15.50;99.90
38428;DHT22;24211;49.980;19.776;2023-09-07T02:12:46;15.40;99.90
38428;DHT22;24211;49.980;19.776;2023-09-07T02:15:13;15.40;99.90
38428;DHT22;24211;49.980;19.776;2023-09-07T02:18:07;15.30;99.90
38428;DHT22;24211;49.980;19.776;2023-09-07T02:20:35;15.30;99.90
38428;DHT22;24211;49.980;19.776;2023-09-07T02:23:03;15.30;99.90
38428;DHT22;24211;49.980;19.776;2023-09-07T02:25:31;15.30;99.90
38428;DHT22;24211;49.980;19.776;2023-09-07T02:27:58;15.20;99.90
38428;DHT22;24211;49.980;19.776;2023-09-07T02:31:17;15.20;99.90
38428;DHT22;24211;49.980;19.776;2023-09-07T02:33:45;15.20;99.90
38428;DHT22;24211;49.980;19.776;2023-09-07T02:36:12;15.10;99.90
38428;DHT22;24211;49.980;19.776;2023-09-07T02:38:39;15.10;99.90
38428;DHT22;24211;49.980;19.776;2023-09-07T02:41:07;15.00;99.90
38428;DHT22;24211;49.980;19.776;2023-09-07T02:43:38;15.00;99.90
38428;DHT22;24211;49.980;19.776;2023-09-07T02:46:06;15.00;99.90
38428;DHT22;24211;49.980;19.776;2023-09-07T02:48:57;15.00;99.90
38428;DHT22;24211;49.980;19.776;2023-09-07T02:51:26;15.00;99.90
38428;DHT22;24211;49.980;19.776;2023-09-07T02:54:02;14.90;99.90
38428;DHT22;24211;49.980;19.776;2023-09-07T02:56:31;14.90;99.90
38428;DHT22;24211;49.980;19.776;2023-09-07T02:58:59;14.80;99.90
38428;DHT22;24211;49.980;19.776;2023-09-07T03:01:26;14.80;99.90
38428;DHT22;24211;49.980;19.776;2023-09-07T03:03:57;14.80;99.90
38428;DHT22;24211;49.980;19.776;2023-09-07T03:07:03;14.80;99.90
38428;DHT22;24211;49.980;19.776;2023-09-07T03:09:31;14.70;99.90
38428;DHT22;24211;49.980;19.776;2023-09-07T03:11:58;14.70;99.90
38428;DHT22;24211;49.980;19.776;2023-09-07T03:14:29;14.60;99.90
38428;DHT22;24211;49.980;19.776;2023-09-07T03:17:10;14.70;99.90
38428;DHT22;24211;49.980;19.776;2023-09-07T03:19:38;14.60;99.90
38428;DHT22;24211;49.980;19.776;2023-09-07T03:22:12;14.60;99.90
38428;DHT22;24211;49.980;19.776;2023-09-07T03:24:40;14.60;99.90
38428;DHT22;24211;49.980;19.776;2023-09-07T03:27:08;14.50;99.90
38428;DHT22;24211;49.980;19.776;2023-09-07T03:29:39;14.50;99.90
38428;DHT22;24211;49.980;19.776;2023-09-07T03:32:06;14.50;99.90
38428;DHT22;24211;49.980;19.776;2023-09-07T03:34:34;14.50;99.90
38428;DHT22;24211;49.980;19.776;2023-09-07T03:37:04;14.40;99.90
38428;DHT22;24211;49.980;19.776;2023-09-07T03:39:33;14.40;99.90
38428;DHT22;24211;49.980;19.776;2023-09-07T03:42:03;14.40;99.90
38428;DHT22;24211;49.980;19.776;2023-09-07T03:44:31;14.30;99.90
38428;DHT22;24211;49.980;19.776;2023-09-07T03:47:00;14.30;99.90
38428;DHT22;24211;49.980;19.776;2023-09-07T03:49:28;14.30;99.90
38428;DHT22;24211;49.980;19.776;2023-09-07T03:51:56;14.30;99.90
38428;DHT22;24211;49.980;19.776;2023-09-07T03:54:24;14.20;99.90
38428;DHT22;24211;49.980;19.776;2023-09-07T03:56:52;14.20;99.90
38428;DHT22;24211;49.980;19.776;2023-09-07T03:59:20;14.20;99.90
38428;DHT22;24211;49.980;19.776;2023-09-07T04:01:47;14.10;99.90
38428;DHT22;24211;49.980;19.776;2023-09-07T04:04:15;14.10;99.90
38428;DHT22;24211;49.980;19.776;2023-09-07T04:06:46;14.10;99.90
38428;DHT22;24211;49.980;19.776;2023-09-07T04:09:17;14.00;99.90
38428;DHT22;24211;49.980;19.776;2023-09-07T04:11:45;14.00;99.90
38428;DHT22;24211;49.980;19.776;2023-09-07T04:14:14;14.00;99.90
38428;DHT22;24211;49.980;19.776;2023-09-07T04:16:46;14.00;99.90
38428;DHT22;24211;49.980;19.776;2023-09-07T04:19:13;14.00;99.90
38428;DHT22;24211;49.980;19.776;2023-09-07T04:21:43;14.00;99.90
38428;DHT22;24211;49.980;19.776;2023-09-07T04:24:10;13.90;99.90
38428;DHT22;24211;49.980;19.776;2023-09-07T04:26:38;13.90;99.90
38428;DHT22;24211;49.980;19.776;2023-09-07T04:29:07;13.90;99.90
38428;DHT22;24211;49.980;19.776;2023-09-07T04:31:34;13.90;99.90
38428;DHT22;24211;49.980;19.776;2023-09-07T04:34:02;13.90;99.90
38428;DHT22;24211;49.980;19.776;2023-09-07T04:36:30;13.90;99.90
38428;DHT22;24211;49.980;19.776;2023-09-07T04:38:57;13.90;99.90
38428;DHT22;24211;49.980;19.776;2023-09-07T04:41:24;13.90;99.90
38428;DHT22;24211;49.980;19.776;2023-09-07T04:43:52;13.90;99.90
38428;DHT22;24211;49.980;19.776;2023-09-07T04:46:22;13.90;99.90
38428;DHT22;24211;49.980;19.776;2023-09-07T04:48:50;13.90;99.90
38428;DHT22;24211;49.980;19.776;2023-09-07T04:51:17;13.90;99.90
38428;DHT22;24211;49.980;19.776;2023-09-07T04:53:45;14.00;99.90
38428;DHT22;24211;49.980;19.776;2023-09-07T04:56:13;14.00;99.90
38428;DHT22;24211;49.980;19.776;2023-09-07T04:58:40;14.10;99.90
38428;DHT22;24211;49.980;19.776;2023-09-07T05:01:09;14.10;99.90
38428;DHT22;24211;49.980;19.776;2023-09-07T05:03:40;14.20;99.90
38428;DHT22;24211;49.980;19.776;2023-09-07T05:06:08;14.20;99.90
38428;DHT22;24211;49.980;19.776;2023-09-07T05:08:36;14.30;99.90
38428;DHT22;24211;49.980;19.776;2023-09-07T05:11:04;14.30;99.90
38428;DHT22;24211;49.980;19.776;2023-09-07T05:13:33;14.40;99.90
38428;DHT22;24211;49.980;19.776;2023-09-07T05:16:03;14.50;99.90
38428;DHT22;24211;49.980;19.776;2023-09-07T05:18:34;14.60;99.90
38428;DHT22;24211;49.980;19.776;2023-09-07T05:21:15;14.70;99.90
38428;DHT22;24211;49.980;19.776;2023-09-07T05:23:44;14.80;99.90
38428;DHT22;24211;49.980;19.776;2023-09-07T05:26:11;14.90;99.90
38428;DHT22;24211;49.980;19.776;2023-09-07T05:28:42;15.00;99.90
38428;DHT22;24211;49.980;19.776;2023-09-07T05:31:10;15.10;99.90
38428;DHT22;24211;49.980;19.776;2023-09-07T05:33:38;15.20;99.90
38428;DHT22;24211;49.980;19.776;2023-09-07T05:36:05;15.40;99.90
38428;DHT22;24211;49.980;19.776;2023-09-07T05:38:33;15.40;99.90
38428;DHT22;24211;49.980;19.776;2023-09-07T05:41:02;15.60;99.90
38428;DHT22;24211;49.980;19.776;2023-09-07T05:43:30;15.70;99.90
38428;DHT22;24211;49.980;19.776;2023-09-07T05:45:59;15.90;99.90
38428;DHT22;24211;49.980;19.776;2023-09-07T05:48:28;16.10;99.90
38428;DHT22;24211;49.980;19.776;2023-09-07T05:50:56;16.20;99.90
38428;DHT22;24211;49.980;19.776;2023-09-07T05:53:23;16.40;99.90
38428;DHT22;24211;49.980;19.776;2023-09-07T05:55:53;16.50;99.90
38428;DHT22;24211;49.980;19.776;2023-09-07T05:58:21;16.70;99.90
38428;DHT22;24211;49.980;19.776;2023-09-07T06:00:48;16.80;99.90
38428;DHT22;24211;49.980;19.776;2023-09-07T06:03:16;17.00;99.90
38428;DHT22;24211;49.980;19.776;2023-09-07T06:05:44;17.20;99.90
38428;DHT22;24211;49.980;19.776;2023-09-07T06:08:12;17.40;99.90
38428;DHT22;24211;49.980;19.776;2023-09-07T06:10:39;17.70;99.90
38428;DHT22;24211;49.980;19.776;2023-09-07T06:13:08;17.90;99.90
38428;DHT22;24211;49.980;19.776;2023-09-07T06:15:36;18.10;99.90
38428;DHT22;24211;49.980;19.776;2023-09-07T06:18:04;18.40;99.90
38428;DHT22;24211;49.980;19.776;2023-09-07T06:20:32;18.60;99.90
38428;DHT22;24211;49.980;19.776;2023-09-07T06:23:03;18.80;99.90
38428;DHT22;24211;49.980;19.776;2023-09-07T06:25:30;19.00;99.90
38428;DHT22;24211;49.980;19.776;2023-09-07T06:28:00;19.30;99.90
38428;DHT22;24211;49.980;19.776;2023-09-07T06:30:30;19.50;99.90
38428;DHT22;24211;49.980;19.776;2023-09-07T06:32:57;19.80;99.90
38428;DHT22;24211;49.980;19.776;2023-09-07T06:35:25;20.10;99.90
38428;DHT22;24211;49.980;19.776;2023-09-07T06:37:54;20.30;99.90
38428;DHT22;24211;49.980;19.776;2023-09-07T06:40:23;20.50;99.90
38428;DHT22;24211;49.980;19.776;2023-09-07T06:42:55;20.70;99.90
38428;DHT22;24211;49.980;19.776;2023-09-07T06:45:26;20.90;99.90
38428;DHT22;24211;49.980;19.776;2023-09-07T06:47:55;21.20;99.90
38428;DHT22;24211;49.980;19.776;2023-09-07T06:51:15;21.40;99.90
38428;DHT22;24211;49.980;19.776;2023-09-07T06:53:42;21.80;99.90
38428;DHT22;24211;49.980;19.776;2023-09-07T06:56:30;22.10;99.90
38428;DHT22;24211;49.980;19.776;2023-09-07T06:59:07;22.40;99.90
38428;DHT22;24211;49.980;19.776;2023-09-07T07:01:38;22.60;99.90
38428;DHT22;24211;49.980;19.776;2023-09-07T07:04:06;22.80;99.90
38428;DHT22;24211;49.980;19.776;2023-09-07T07:06:35;23.00;99.90
38428;DHT22;24211;49.980;19.776;2023-09-07T07:09:03;23.20;99.90
38428;DHT22;24211;49.980;19.776;2023-09-07T07:11:30;23.40;99.90
38428;DHT22;24211;49.980;19.776;2023-09-07T07:14:48;23.70;99.90
38428;DHT22;24211;49.980;19.776;2023-09-07T07:17:16;23.80;99.90
38428;DHT22;24211;49.980;19.776;2023-09-07T07:19:44;23.80;99.90
38428;DHT22;24211;49.980;19.776;2023-09-07T07:22:12;23.90;99.90
38428;DHT22;24211;49.980;19.776;2023-09-07T07:24:40;24.00;99.90
38428;DHT22;24211;49.980;19.776;2023-09-07T07:27:08;24.20;99.90
38428;DHT22;24211;49.980;19.776;2023-09-07T07:33:48;24.50;99.90
38428;DHT22;24211;49.980;19.776;2023-09-07T07:36:43;24.70;99.90
38428;DHT22;24211;49.980;19.776;2023-09-07T07:39:11;24.90;99.90
38428;DHT22;24211;49.980;19.776;2023-09-07T07:41:38;25.20;99.90
38428;DHT22;24211;49.980;19.776;2023-09-07T07:44:35;25.30;99.90
38428;DHT22;24211;49.980;19.776;2023-09-07T07:47:04;25.60;99.90
38428;DHT22;24211;49.980;19.776;2023-09-07T07:49:33;25.80;99.90
38428;DHT22;24211;49.980;19.776;2023-09-07T07:52:01;25.90;99.90
38428;DHT22;24211;49.980;19.776;2023-09-07T07:54:33;26.10;99.90
38428;DHT22;24211;49.980;19.776;2023-09-07T07:57:03;26.50;99.90
38428;DHT22;24211;49.980;19.776;2023-09-07T07:59:56;26.60;99.90
38428;DHT22;24211;49.980;19.776;2023-09-07T08:02:29;26.90;99.90
38428;DHT22;24211;49.980;19.776;2023-09-07T08:05:13;26.90;99.90
38428;DHT22;24211;49.980;19.776;2023-09-07T08:07:42;27.00;99.90
38428;DHT22;24211;49.980;19.776;2023-09-07T08:10:10;27.00;99.90
38428;DHT22;24211;49.980;19.776;2023-09-07T08:12:37;27.10;99.90
38428;DHT22;24211;49.980;19.776;2023-09-07T08:15:06;27.40;99.90
38428;DHT22;24211;49.980;19.776;2023-09-07T08:17:33;27.50;99.90
38428;DHT22;24211;49.980;19.776;2023-09-07T08:20:27;27.50;99.90
38428;DHT22;24211;49.980;19.776;2023-09-07T08:22:56;27.60;99.90
38428;DHT22;24211;49.980;19.776;2023-09-07T08:25:28;27.70;99.90
38428;DHT22;24211;49.980;19.776;2023-09-07T08:27:55;27.80;99.90
38428;DHT22;24211;49.980;19.776;2023-09-07T08:30:33;27.90;99.90
38428;DHT22;24211;49.980;19.776;2023-09-07T08:33:01;28.10;99.90
38428;DHT22;24211;49.980;19.776;2023-09-07T08:35:29;28.20;99.40
38428;DHT22;24211;49.980;19.776;2023-09-07T08:37:57;28.30;99.90
38428;DHT22;24211;49.980;19.776;2023-09-07T08:40:28;28.40;99.90
38428;DHT22;24211;49.980;19.776;2023-09-07T08:42:56;28.50;99.90
38428;DHT22;24211;49.980;19.776;2023-09-07T08:45:26;28.40;99.80
38428;DHT22;24211;49.980;19.776;2023-09-07T08:47:59;28.20;99.70
38428;DHT22;24211;49.980;19.776;2023-09-07T08:50:29;28.60;99.90
38428;DHT22;24211;49.980;19.776;2023-09-07T08:52:57;28.80;99.80
38428;DHT22;24211;49.980;19.776;2023-09-07T08:55:27;29.00;99.50
38428;DHT22;24211;49.980;19.776;2023-09-07T08:57:54;29.10;99.30
38428;DHT22;24211;49.980;19.776;2023-09-07T09:00:21;29.00;99.10
38428;DHT22;24211;49.980;19.776;2023-09-07T09:02:50;29.20;99.00
38428;DHT22;24211;49.980;19.776;2023-09-07T09:05:54;29.40;99.00
38428;DHT22;24211;49.980;19.776;2023-09-07T09:08:23;29.10;98.80
38428;DHT22;24211;49.980;19.776;2023-09-07T09:11:01;29.30;99.00
38428;DHT22;24211;49.980;19.776;2023-09-07T09:13:32;29.70;98.80
38428;DHT22;24211;49.980;19.776;2023-09-07T09:16:31;29.90;97.70
38428;DHT22;24211;49.980;19.776;2023-09-07T09:18:59;29.80;97.90
38428;DHT22;24211;49.980;19.776;2023-09-07T09:21:34;29.90;98.30
38428;DHT22;24211;49.980;19.776;2023-09-07T09:24:09;30.10;97.30
38428;DHT22;24211;49.980;19.776;2023-09-07T09:26:38;30.00;97.80
38428;DHT22;24211;49.980;19.776;2023-09-07T09:29:05;29.80;96.30
38428;DHT22;24211;49.980;19.776;2023-09-07T09:31:33;29.60;96.20
38428;DHT22;24211;49.980;19.776;2023-09-07T09:34:35;29.70;97.40
38428;DHT22;24211;49.980;19.776;2023-09-07T09:37:04;29.70;96.60
38428;DHT22;24211;49.980;19.776;2023-09-07T09:44:23;30.20;97.00
38428;DHT22;24211;49.980;19.776;2023-09-07T09:46:53;29.70;97.00
38428;DHT22;24211;49.980;19.776;2023-09-07T09:49:41;29.90;96.00
38428;DHT22;24211;49.980;19.776;2023-09-07T09:52:16;30.00;96.30
38428;DHT22;24211;49.980;19.776;2023-09-07T09:54:44;29.90;96.40
38428;DHT22;24211;49.980;19.776;2023-09-07T09:57:20;30.10;96.30
38428;DHT22;24211;49.980;19.776;2023-09-07T10:03:26;30.20;96.30
38428;DHT22;24211;49.980;19.776;2023-09-07T10:06:25;29.90;95.10
38428;DHT22;24211;49.980;19.776;2023-09-07T10:09:02;29.50;95.40
38428;DHT22;24211;49.980;19.776;2023-09-07T10:11:36;29.90;95.50
38428;DHT22;24211;49.980;19.776;2023-09-07T10:14:06;30.00;96.10
38428;DHT22;24211;49.980;19.776;2023-09-07T10:16:45;30.10;95.00
38428;DHT22;24211;49.980;19.776;2023-09-07T10:19:24;29.80;95.80
38428;DHT22;24211;49.980;19.776;2023-09-07T10:21:54;29.60;95.00
38428;DHT22;24211;49.980;19.776;2023-09-07T10:24:33;30.20;96.10
38428;DHT22;24211;49.980;19.776;2023-09-07T10:27:07;30.20;95.10
38428;DHT22;24211;49.980;19.776;2023-09-07T10:29:46;30.10;94.70
38428;DHT22;24211;49.980;19.776;2023-09-07T10:32:23;30.20;95.40
38428;DHT22;24211;49.980;19.776;2023-09-07T10:34:50;29.80;95.60
38428;DHT22;24211;49.980;19.776;2023-09-07T10:37:18;30.00;95.50
38428;DHT22;24211;49.980;19.776;2023-09-07T10:40:02;30.30;95.70
38428;DHT22;24211;49.980;19.776;2023-09-07T10:43:10;30.10;95.70
38428;DHT22;24211;49.980;19.776;2023-09-07T10:45:56;30.40;95.70
38428;DHT22;24211;49.980;19.776;2023-09-07T10:48:25;29.70;93.60
38428;DHT22;24211;49.980;19.776;2023-09-07T10:50:53;29.90;93.30
38428;DHT22;24211;49.980;19.776;2023-09-07T10:53:27;30.20;94.10
38428;DHT22;24211;49.980;19.776;2023-09-07T10:56:07;30.80;94.50
38428;DHT22;24211;49.980;19.776;2023-09-07T10:58:40;30.20;94.00
38428;DHT22;24211;49.980;19.776;2023-09-07T11:01:11;30.10;94.90
38428;DHT22;24211;49.980;19.776;2023-09-07T11:03:43;29.80;94.30
38428;DHT22;24211;49.980;19.776;2023-09-07T11:06:51;30.00;94.90
38428;DHT22;24211;49.980;19.776;2023-09-07T11:09:43;29.80;94.80
38428;DHT22;24211;49.980;19.776;2023-09-07T11:12:14;30.00;94.30
38428;DHT22;24211;49.980;19.776;2023-09-07T11:14:47;29.90;94.90
38428;DHT22;24211;49.980;19.776;2023-09-07T11:17:18;30.30;95.40
38428;DHT22;24211;49.980;19.776;2023-09-07T11:19:52;30.20;94.10
38428;DHT22;24211;49.980;19.776;2023-09-07T11:22:20;29.80;94.60
38428;DHT22;24211;49.980;19.776;2023-09-07T11:24:47;30.20;95.20
38428;DHT22;24211;49.980;19.776;2023-09-07T11:27:18;30.30;93.80
38428;DHT22;24211;49.980;19.776;2023-09-07T11:29:52;29.90;94.30
38428;DHT22;24211;49.980;19.776;2023-09-07T11:32:20;30.00;94.40
38428;DHT22;24211;49.980;19.776;2023-09-07T11:34:51;30.40;94.80
38428;DHT22;24211;49.980;19.776;2023-09-07T11:37:28;30.40;93.60
38428;DHT22;24211;49.980;19.776;2023-09-07T11:40:04;30.50;94.10
38428;DHT22;24211;49.980;19.776;2023-09-07T11:42:45;30.30;94.10
38428;DHT22;24211;49.980;19.776;2023-09-07T11:45:14;30.30;92.50
38428;DHT22;24211;49.980;19.776;2023-09-07T11:47:46;30.00;92.90
38428;DHT22;24211;49.980;19.776;2023-09-07T11:50:16;29.50;94.20
38428;DHT22;24211;49.980;19.776;2023-09-07T11:52:45;29.50;94.30
38428;DHT22;24211;49.980;19.776;2023-09-07T11:55:14;29.20;94.10
38428;DHT22;24211;49.980;19.776;2023-09-07T11:57:42;29.50;95.40
38428;DHT22;24211;49.980;19.776;2023-09-07T12:00:14;30.30;94.10
38428;DHT22;24211;49.980;19.776;2023-09-07T12:02:49;30.00;94.90
38428;DHT22;24211;49.980;19.776;2023-09-07T12:05:18;30.10;93.30
38428;DHT22;24211;49.980;19.776;2023-09-07T12:07:47;30.10;93.80
38428;DHT22;24211;49.980;19.776;2023-09-07T12:10:14;30.30;93.80
38428;DHT22;24211;49.980;19.776;2023-09-07T12:12:43;30.80;94.10
38428;DHT22;24211;49.980;19.776;2023-09-07T12:15:25;30.80;94.50
38428;DHT22;24211;49.980;19.776;2023-09-07T12:18:02;30.10;93.70
38428;DHT22;24211;49.980;19.776;2023-09-07T12:20:34;29.70;94.00
38428;DHT22;24211;49.980;19.776;2023-09-07T12:23:03;29.90;94.80
38428;DHT22;24211;49.980;19.776;2023-09-07T12:25:34;30.00;92.90
38428;DHT22;24211;49.980;19.776;2023-09-07T12:28:03;30.50;94.80
38428;DHT22;24211;49.980;19.776;2023-09-07T12:30:30;30.40;92.90
38428;DHT22;24211;49.980;19.776;2023-09-07T12:32:58;30.40;93.70
38428;DHT22;24211;49.980;19.776;2023-09-07T12:35:30;30.60;94.40
38428;DHT22;24211;49.980;19.776;2023-09-07T12:38:04;30.30;94.60
38428;DHT22;24211;49.980;19.776;2023-09-07T12:41:47;30.00;93.80
38428;DHT22;24211;49.980;19.776;2023-09-07T12:44:15;29.70;94.80
38428;DHT22;24211;49.980;19.776;2023-09-07T12:46:43;29.90;92.90
38428;DHT22;24211;49.980;19.776;2023-09-07T12:49:26;29.40;93.10
38428;DHT22;24211;49.980;19.776;2023-09-07T12:51:53;29.60;93.50
38428;DHT22;24211;49.980;19.776;2023-09-07T12:54:23;29.70;93.40
38428;DHT22;24211;49.980;19.776;2023-09-07T12:56:50;29.50;93.40
38428;DHT22;24211;49.980;19.776;2023-09-07T12:59:18;29.20;94.50
38428;DHT22;24211;49.980;19.776;2023-09-07T13:01:46;29.00;93.20
38428;DHT22;24211;49.980;19.776;2023-09-07T13:04:14;28.90;93.40
38428;DHT22;24211;49.980;19.776;2023-09-07T13:06:42;28.80;94.40
38428;DHT22;24211;49.980;19.776;2023-09-07T13:09:09;29.20;93.70
38428;DHT22;24211;49.980;19.776;2023-09-07T13:11:39;29.60;94.70
38428;DHT22;24211;49.980;19.776;2023-09-07T13:14:08;29.60;93.70
38428;DHT22;24211;49.980;19.776;2023-09-07T13:16:46;30.00;93.10
38428;DHT22;24211;49.980;19.776;2023-09-07T13:19:15;29.80;94.10
38428;DHT22;24211;49.980;19.776;2023-09-07T13:21:45;29.60;94.00
38428;DHT22;24211;49.980;19.776;2023-09-07T13:24:12;29.10;93.70
38428;DHT22;24211;49.980;19.776;2023-09-07T13:26:40;29.00;95.00
38428;DHT22;24211;49.980;19.776;2023-09-07T13:29:08;28.90;94.70
38428;DHT22;24211;49.980;19.776;2023-09-07T13:31:36;28.70;95.10
38428;DHT22;24211;49.980;19.776;2023-09-07T13:34:03;28.40;95.00
38428;DHT22;24211;49.980;19.776;2023-09-07T13:36:31;29.10;95.30
38428;DHT22;24211;49.980;19.776;2023-09-07T13:38:59;28.90;93.10
38428;DHT22;24211;49.980;19.776;2023-09-07T13:41:26;28.80;94.50
38428;DHT22;24211;49.980;19.776;2023-09-07T13:43:54;29.30;94.20
38428;DHT22;24211;49.980;19.776;2023-09-07T13:46:21;29.20;94.10
38428;DHT22;24211;49.980;19.776;2023-09-07T13:48:50;28.80;93.80
38428;DHT22;24211;49.980;19.776;2023-09-07T13:51:23;29.20;94.50
38428;DHT22;24211;49.980;19.776;2023-09-07T13:54:19;28.80;94.50
38428;DHT22;24211;49.980;19.776;2023-09-07T13:57:14;28.80;94.40
38428;DHT22;24211;49.980;19.776;2023-09-07T13:59:47;28.90;95.30
38428;DHT22;24211;49.980;19.776;2023-09-07T14:02:15;29.00;94.20
38428;DHT22;24211;49.980;19.776;2023-09-07T14:05:11;29.50;94.30
38428;DHT22;24211;49.980;19.776;2023-09-07T14:07:42;30.30;94.30
38428;DHT22;24211;49.980;19.776;2023-09-07T14:10:14;29.70;93.50
38428;DHT22;24211;49.980;19.776;2023-09-07T14:12:41;29.60;94.60
38428;DHT22;24211;49.980;19.776;2023-09-07T14:15:13;28.70;94.10
38428;DHT22;24211;49.980;19.776;2023-09-07T17:34:53;26.60;97.30
38428;DHT22;24211;49.980;19.776;2023-09-07T17:37:21;26.40;97.40
38428;DHT22;24211;49.980;19.776;2023-09-07T17:39:48;26.30;97.40
38428;DHT22;24211;49.980;19.776;2023-09-07T17:42:15;26.20;97.50
38428;DHT22;24211;49.980;19.776;2023-09-07T17:44:42;26.10;97.60
38428;DHT22;24211;49.980;19.776;2023-09-07T17:47:10;26.00;97.60
38428;DHT22;24211;49.980;19.776;2023-09-07T17:49:37;25.90;97.70
38428;DHT22;24211;49.980;19.776;2023-09-07T17:52:05;25.80;97.90
38428;DHT22;24211;49.980;19.776;2023-09-07T17:54:33;25.70;97.90
38428;DHT22;24211;49.980;19.776;2023-09-07T17:57:01;25.60;97.90
38428;DHT22;24211;49.980;19.776;2023-09-07T17:59:28;25.50;98.00
38428;DHT22;24211;49.980;19.776;2023-09-07T18:01:55;25.50;98.20
38428;DHT22;24211;49.980;19.776;2023-09-07T18:04:23;25.30;98.30
38428;DHT22;24211;49.980;19.776;2023-09-07T18:06:52;25.20;98.60
38428;DHT22;24211;49.980;19.776;2023-09-07T18:09:19;25.20;98.40
38428;DHT22;24211;49.980;19.776;2023-09-07T18:11:46;25.10;98.50
38428;DHT22;24211;49.980;19.776;2023-09-07T18:14:13;25.00;98.70
38428;DHT22;24211;49.980;19.776;2023-09-07T18:16:41;24.90;98.70
38428;DHT22;24211;49.980;19.776;2023-09-07T18:19:09;24.80;98.80
38428;DHT22;24211;49.980;19.776;2023-09-07T18:21:37;24.70;99.00
38428;DHT22;24211;49.980;19.776;2023-09-07T18:24:05;24.60;99.00
38428;DHT22;24211;49.980;19.776;2023-09-07T18:26:33;24.60;99.10
38428;DHT22;24211;49.980;19.776;2023-09-07T18:29:00;24.50;99.10
38428;DHT22;24211;49.980;19.776;2023-09-07T18:31:30;24.40;99.20
38428;DHT22;24211;49.980;19.776;2023-09-07T18:33:58;24.40;99.20
38428;DHT22;24211;49.980;19.776;2023-09-07T18:36:28;24.30;99.30
38428;DHT22;24211;49.980;19.776;2023-09-07T18:38:55;24.30;99.40
38428;DHT22;24211;49.980;19.776;2023-09-07T18:41:22;24.20;99.40
38428;DHT22;24211;49.980;19.776;2023-09-07T18:43:49;24.10;99.30
38428;DHT22;24211;49.980;19.776;2023-09-07T18:46:21;24.00;99.40
38428;DHT22;24211;49.980;19.776;2023-09-07T18:48:48;23.90;99.40
38428;DHT22;24211;49.980;19.776;2023-09-07T18:51:16;23.90;99.50
38428;DHT22;24211;49.980;19.776;2023-09-07T18:53:43;23.80;99.50
38428;DHT22;24211;49.980;19.776;2023-09-07T18:56:10;23.70;99.60
38428;DHT22;24211;49.980;19.776;2023-09-07T18:58:37;23.70;99.60
38428;DHT22;24211;49.980;19.776;2023-09-07T19:01:21;23.60;99.60
38428;DHT22;24211;49.980;19.776;2023-09-07T19:06:39;23.40;99.70
38428;DHT22;24211;49.980;19.776;2023-09-07T19:09:07;23.40;99.80
38428;DHT22;24211;49.980;19.776;2023-09-07T19:11:37;23.30;99.90
38428;DHT22;24211;49.980;19.776;2023-09-07T19:14:04;23.20;99.90
38428;DHT22;24211;49.980;19.776;2023-09-07T19:16:33;23.10;99.90